createdAt,value
2017-12-29T00:00:12.801Z,84.69
2017-12-29T00:01:22.580Z,84.69
2017-12-29T00:02:32.374Z,84.69
2017-12-29T00:03:42.412Z,84.5
2017-12-29T00:04:52.257Z,84.59
2017-12-29T00:06:02.305Z,84.69
2017-12-29T00:07:12.359Z,84.69
2017-12-29T00:08:22.177Z,84.69
2017-12-29T00:09:32.229Z,84.69
2017-12-29T00:10:42.341Z,84.59
2017-12-29T00:11:52.117Z,84.88
2017-12-29T00:13:02.153Z,84.69
2017-12-29T00:14:12.193Z,84.78
2017-12-29T00:15:22.233Z,84.88
2017-12-29T00:16:32.324Z,84.59
2017-12-29T00:17:41.843Z,84.78
2017-12-29T00:18:51.891Z,84.59
2017-12-29T00:20:01.962Z,84.69
2017-12-29T00:21:11.508Z,84.69
2017-12-29T00:22:21.629Z,84.59
2017-12-29T00:23:31.695Z,84.98
2017-12-29T00:24:41.473Z,84.98
2017-12-29T00:25:51.530Z,84.88
2017-12-29T00:27:01.584Z,84.59
2017-12-29T00:28:11.631Z,84.59
2017-12-29T00:29:21.700Z,85.07
2017-12-29T00:30:31.215Z,85.07
2017-12-29T00:31:41.257Z,84.78
2017-12-29T00:32:51.320Z,84.59
2017-12-29T00:34:01.425Z,84.78
2017-12-29T00:35:11.222Z,84.69
2017-12-29T00:36:21.289Z,84.69
2017-12-29T00:37:31.081Z,84.59
2017-12-29T00:38:40.878Z,84.5
2017-12-29T00:39:50.674Z,84.5
2017-12-29T00:41:00.947Z,84.5
2017-12-29T00:42:11.029Z,84.69
2017-12-29T00:43:21.066Z,84.69
2017-12-29T00:44:31.356Z,84.59
2017-12-29T00:45:41.209Z,84.88
2017-12-29T00:46:51.002Z,84.69
2017-12-29T00:48:01.035Z,84.5
2017-12-29T00:49:11.100Z,84.59
2017-12-29T00:50:21.145Z,84.69
2017-12-29T00:51:31.198Z,84.69
2017-12-29T00:52:40.969Z,84.5
2017-12-29T00:53:50.821Z,84.5
2017-12-29T00:55:00.299Z,84.59
2017-12-29T00:56:10.330Z,84.5
2017-12-29T00:57:20.361Z,84.59
2017-12-29T00:58:30.424Z,84.59
2017-12-29T00:59:40.460Z,84.69
2017-12-29T01:00:50.514Z,84.69
2017-12-29T01:02:00.304Z,84.78
2017-12-29T01:03:10.396Z,84.5
2017-12-29T01:04:20.186Z,84.5
2017-12-29T01:05:30.288Z,84.88
2017-12-29T01:06:40.064Z,84.69
2017-12-29T01:07:50.116Z,84.78
2017-12-29T01:08:59.913Z,84.69
2017-12-29T01:10:09.721Z,84.59
2017-12-29T01:11:19.523Z,84.69
2017-12-29T01:12:29.569Z,84.5
2017-12-29T01:13:39.604Z,84.69
2017-12-29T01:14:49.708Z,84.78
2017-12-29T01:15:59.744Z,84.69
2017-12-29T01:17:09.781Z,84.69
2017-12-29T01:18:19.573Z,84.69
2017-12-29T01:19:29.639Z,84.69
2017-12-29T01:20:39.683Z,84.69
2017-12-29T01:21:49.463Z,84.41
2017-12-29T01:22:59.756Z,84.69
2017-12-29T01:24:09.553Z,84.69
2017-12-29T01:25:19.595Z,84.78
2017-12-29T01:26:29.625Z,84.78
2017-12-29T01:27:39.414Z,84.5
2017-12-29T01:28:49.448Z,84.5
2017-12-29T01:29:59.502Z,84.88
2017-12-29T01:31:10.402Z,84.5
2017-12-29T01:32:20.458Z,84.74
2017-12-29T01:33:30.236Z,84.55
2017-12-29T01:34:40.088Z,84.64
2017-12-29T01:35:49.880Z,84.5
2017-12-29T01:36:59.672Z,84.64
2017-12-29T01:38:09.553Z,84.78
2017-12-29T01:39:19.619Z,84.74
2017-12-29T01:40:29.393Z,84.92
2017-12-29T01:41:39.167Z,84.74
2017-12-29T01:42:48.952Z,84.55
2017-12-29T01:43:58.790Z,84.55
2017-12-29T01:45:08.877Z,84.92
2017-12-29T01:46:18.916Z,84.74
2017-12-29T01:47:28.980Z,84.83
2017-12-29T01:48:39.013Z,84.64
2017-12-29T01:49:49.098Z,85.02
2017-12-29T01:50:59.144Z,85.02
2017-12-29T01:52:09.235Z,85.11
2017-12-29T01:53:19.290Z,85.11
2017-12-29T01:54:29.331Z,84.92
2017-12-29T01:55:39.104Z,85.02
2017-12-29T01:56:49.138Z,84.74
2017-12-29T01:57:59.201Z,85.11
2017-12-29T01:59:09.249Z,85.02
2017-12-29T02:00:19.292Z,84.74
2017-12-29T02:01:29.372Z,84.74
2017-12-29T02:02:39.150Z,84.74
2017-12-29T02:03:48.953Z,85.02
2017-12-29T02:04:58.982Z,84.92
2017-12-29T02:06:09.005Z,84.92
2017-12-29T02:07:19.097Z,84.64
2017-12-29T02:08:29.158Z,84.74
2017-12-29T02:09:38.945Z,84.92
2017-12-29T02:10:48.983Z,84.83
2017-12-29T02:11:59.480Z,85.4
2017-12-29T02:13:09.314Z,85.02
2017-12-29T02:14:19.102Z,85.49
2017-12-29T02:15:28.885Z,85.4
2017-12-29T02:16:38.931Z,85.4
2017-12-29T02:17:48.779Z,85.3
2017-12-29T02:18:58.832Z,85.49
2017-12-29T02:20:08.887Z,85.49
2017-12-29T02:21:18.926Z,84.92
2017-12-29T02:22:28.709Z,84.92
2017-12-29T02:23:38.500Z,85.59
2017-12-29T02:24:48.334Z,85.4
2017-12-29T02:25:58.394Z,85.4
2017-12-29T02:27:08.179Z,85.4
2017-12-29T02:28:18.227Z,84.92
2017-12-29T02:29:28.004Z,84.64
2017-12-29T02:30:38.423Z,84.92
2017-12-29T02:31:47.956Z,84.83
2017-12-29T02:32:57.750Z,85.21
2017-12-29T02:34:07.530Z,84.83
2017-12-29T02:35:17.598Z,84.64
2017-12-29T02:36:27.651Z,84.92
2017-12-29T02:37:37.703Z,84.92
2017-12-29T02:38:47.758Z,84.92
2017-12-29T02:39:57.556Z,84.92
2017-12-29T02:41:07.607Z,85.4
2017-12-29T02:42:17.659Z,85.49
2017-12-29T02:43:27.686Z,84.92
2017-12-29T02:44:37.730Z,85.21
2017-12-29T02:45:47.791Z,84.92
2017-12-29T02:46:57.836Z,85.21
2017-12-29T02:48:07.642Z,85.4
2017-12-29T02:49:17.700Z,85.49
2017-12-29T02:50:27.511Z,84.64
2017-12-29T02:51:37.548Z,84.83
2017-12-29T02:52:47.614Z,85.49
2017-12-29T02:53:57.708Z,85.49
2017-12-29T02:55:07.754Z,84.92
2017-12-29T02:56:17.555Z,85.4
2017-12-29T02:57:27.593Z,85.3
2017-12-29T02:58:37.668Z,85.3
2017-12-29T02:59:47.765Z,85.4
2017-12-29T03:00:57.548Z,85.07
2017-12-29T03:02:07.343Z,84.5
2017-12-29T03:33:53.285Z,80.3
2017-12-29T03:35:03.319Z,80.87
2017-12-29T03:36:13.100Z,81.92
2017-12-29T03:37:22.882Z,83
2017-12-29T03:38:32.970Z,83.37
2017-12-29T03:39:42.791Z,84.13
2017-12-29T03:40:52.829Z,84.7
2017-12-29T03:42:02.613Z,84.8
2017-12-29T03:43:12.665Z,85.27
2017-12-29T03:44:22.703Z,85.17
2017-12-29T03:45:32.520Z,85.46
2017-12-29T03:46:42.556Z,85.5
2017-12-29T03:47:52.613Z,85.69
2017-12-29T03:49:02.650Z,85.5
2017-12-29T03:50:12.699Z,85.5
2017-12-29T03:51:22.534Z,85.5
2017-12-29T03:52:32.612Z,85.78
2017-12-29T03:53:42.668Z,85.5
2017-12-29T03:54:52.714Z,85.45
2017-12-29T03:56:02.754Z,85.36
2017-12-29T03:57:12.812Z,85.26
2017-12-29T03:58:22.863Z,85.17
2017-12-29T03:59:32.904Z,85.26
2017-12-29T04:00:42.943Z,85.45
2017-12-29T04:01:53.003Z,85.36
2017-12-29T04:03:03.116Z,85.36
2017-12-29T04:04:13.143Z,85.26
2017-12-29T04:05:23.186Z,85.26
2017-12-29T04:06:33.234Z,85.45
2017-12-29T04:07:43.280Z,85.55
2017-12-29T04:08:53.381Z,84.98
2017-12-29T04:10:02.902Z,85.26
2017-12-29T04:11:12.955Z,85.36
2017-12-29T04:12:22.986Z,85.26
2017-12-29T04:13:32.771Z,85.26
2017-12-29T04:14:42.865Z,85.17
2017-12-29T04:15:52.905Z,85.45
2017-12-29T04:17:02.683Z,85.36
2017-12-29T04:18:12.476Z,84.59
2017-12-29T04:19:22.518Z,85.17
2017-12-29T04:20:32.549Z,85.07
2017-12-29T04:21:42.603Z,84.98
2017-12-29T04:22:52.641Z,84.98
2017-12-29T04:24:02.682Z,84.59
2017-12-29T04:25:12.719Z,84.59
2017-12-29T04:26:22.777Z,84.5
2017-12-29T04:27:32.807Z,84.69
2017-12-29T04:28:42.598Z,84.69
2017-12-29T04:29:52.137Z,84.69
2017-12-29T04:31:02.196Z,84.5
2017-12-29T04:32:12.231Z,84.69
2017-12-29T04:33:22.258Z,84.5
2017-12-29T04:34:32.301Z,84.41
2017-12-29T04:35:42.339Z,84.59
2017-12-29T04:36:52.382Z,84.88
2017-12-29T04:38:02.437Z,84.88
2017-12-29T04:39:12.201Z,84.5
2017-12-29T04:40:22.250Z,84.59
2017-12-29T04:41:32.034Z,84.78
2017-12-29T04:42:42.068Z,84.59
2017-12-29T04:43:52.118Z,84.69
2017-12-29T04:45:02.179Z,84.41
2017-12-29T04:46:12.227Z,84.69
2017-12-29T04:47:22.269Z,84.69
2017-12-29T04:48:32.311Z,84.5
2017-12-29T04:49:42.373Z,84.78
2017-12-29T04:50:52.403Z,84.88
2017-12-29T04:52:02.195Z,84.69
2017-12-29T04:53:12.227Z,84.78
2017-12-29T04:54:22.256Z,84.78
2017-12-29T04:55:32.305Z,84.88
2017-12-29T04:56:42.348Z,84.69
2017-12-29T04:57:52.379Z,84.69
2017-12-29T04:59:02.454Z,84.69
2017-12-29T05:00:12.503Z,84.5
2017-12-29T05:01:22.520Z,84.5
2017-12-29T05:02:32.565Z,84.88
2017-12-29T05:03:42.347Z,84.98
2017-12-29T05:04:52.140Z,84.78
2017-12-29T05:06:02.173Z,84.78
2017-12-29T05:07:12.279Z,84.88
2017-12-29T05:08:22.324Z,84.88
2017-12-29T05:09:32.361Z,84.78
2017-12-29T05:10:42.413Z,84.69
2017-12-29T05:11:52.452Z,84.69
2017-12-29T05:13:02.505Z,84.69
2017-12-29T05:14:12.313Z,84.78
2017-12-29T05:15:22.353Z,84.78
2017-12-29T05:16:32.383Z,84.78
2017-12-29T05:17:42.439Z,84.98
2017-12-29T05:18:52.530Z,84.98
2017-12-29T05:20:02.620Z,84.5
2017-12-29T05:21:12.660Z,84.5
2017-12-29T05:22:22.715Z,84.31
2017-12-29T05:23:32.741Z,84.98
2017-12-29T05:24:42.579Z,84.88
2017-12-29T05:25:52.622Z,84.88
2017-12-29T05:27:02.668Z,84.78
2017-12-29T05:28:12.719Z,84.78
2017-12-29T05:29:22.522Z,84.78
2017-12-29T05:30:32.577Z,84.78
2017-12-29T05:31:42.621Z,84.59
2017-12-29T05:32:52.673Z,84.69
2017-12-29T05:34:02.464Z,84.78
2017-12-29T05:35:12.255Z,84.78
2017-12-29T05:36:22.341Z,84.69
2017-12-29T05:37:32.388Z,84.69
2017-12-29T05:38:41.664Z,84.69
2017-12-29T05:39:51.450Z,84.78
2017-12-29T05:41:01.505Z,84.69
2017-12-29T05:42:11.565Z,84.69
2017-12-29T05:43:21.623Z,84.59
2017-12-29T05:44:31.668Z,84.78
2017-12-29T05:45:41.451Z,84.69
2017-12-29T05:46:50.973Z,84.69
2017-12-29T05:48:00.765Z,84.59
2017-12-29T05:49:10.547Z,84.98
2017-12-29T05:50:20.340Z,84.59
2017-12-29T05:51:30.390Z,84.69
2017-12-29T05:52:40.431Z,84.69
2017-12-29T05:53:50.530Z,84.78
2017-12-29T05:55:00.620Z,85.17
2017-12-29T05:56:10.407Z,84.59
2017-12-29T05:57:20.199Z,84.69
2017-12-29T05:58:30.232Z,84.69
2017-12-29T05:59:40.010Z,84.98
2017-12-29T06:00:50.046Z,84.78
2017-12-29T06:01:59.816Z,84.78
2017-12-29T06:03:09.853Z,84.78
2017-12-29T06:04:19.897Z,84.88
2017-12-29T06:05:29.464Z,84.78
2017-12-29T06:06:39.507Z,84.69
2017-12-29T06:07:49.549Z,84.69
2017-12-29T06:08:59.584Z,84.78
2017-12-29T06:10:09.634Z,84.69
2017-12-29T06:11:19.465Z,84.78
2017-12-29T06:12:29.515Z,84.59
2017-12-29T06:13:39.289Z,84.59
2017-12-29T06:14:49.336Z,85.17
2017-12-29T06:15:59.119Z,84.78
2017-12-29T06:17:09.225Z,84.59
2017-12-29T06:18:19.306Z,84.88
2017-12-29T06:19:29.099Z,85.17
2017-12-29T06:20:39.138Z,84.88
2017-12-29T06:21:48.926Z,84.59
2017-12-29T06:22:58.735Z,84.69
2017-12-29T06:24:08.769Z,84.69
2017-12-29T06:25:18.800Z,84.88
2017-12-29T06:26:28.840Z,84.98
2017-12-29T06:27:38.886Z,84.78
2017-12-29T06:28:48.976Z,84.98
2017-12-29T06:29:58.766Z,84.78
2017-12-29T06:31:08.546Z,84.98
2017-12-29T06:32:18.586Z,84.98
2017-12-29T06:33:28.649Z,84.98
2017-12-29T06:34:38.694Z,84.78
2017-12-29T06:35:49.795Z,84.78
2017-12-29T06:36:59.306Z,84.69
2017-12-29T06:38:09.069Z,84.59
2017-12-29T06:39:19.104Z,84.69
2017-12-29T06:40:29.152Z,84.69
2017-12-29T06:41:38.677Z,84.69
2017-12-29T06:42:48.729Z,84.69
2017-12-29T06:43:58.768Z,84.59
2017-12-29T06:45:08.804Z,85.17
2017-12-29T06:46:18.893Z,84.98
2017-12-29T06:47:28.938Z,85.17
2017-12-29T06:48:38.975Z,84.78
2017-12-29T06:49:49.026Z,84.69
2017-12-29T06:50:59.070Z,84.78
2017-12-29T06:52:08.885Z,84.59
2017-12-29T06:53:18.689Z,84.59
2017-12-29T06:54:28.741Z,84.78
2017-12-29T06:55:38.521Z,84.88
2017-12-29T06:56:48.559Z,84.78
2017-12-29T06:57:58.664Z,84.78
2017-12-29T06:59:08.696Z,84.69
2017-12-29T07:00:18.752Z,84.59
2017-12-29T07:01:28.799Z,84.59
2017-12-29T07:02:38.833Z,84.98
2017-12-29T07:03:48.635Z,84.59
2017-12-29T07:04:58.671Z,84.59
2017-12-29T07:06:08.475Z,84.5
2017-12-29T07:07:18.258Z,84.69
2017-12-29T07:08:28.300Z,84.69
2017-12-29T07:09:38.082Z,84.41
2017-12-29T07:10:48.135Z,84.5
2017-12-29T07:11:58.175Z,84.41
2017-12-29T07:13:08.219Z,84.22
2017-12-29T07:14:18.260Z,84.31
2017-12-29T07:15:28.325Z,84.41
2017-12-29T07:16:38.101Z,84.31
2017-12-29T07:17:48.159Z,84.31
2017-12-29T07:18:58.215Z,83.84
2017-12-29T07:20:08.248Z,83.94
2017-12-29T07:21:18.339Z,84.12
2017-12-29T07:22:28.117Z,84.03
2017-12-29T07:23:38.172Z,84.12
2017-12-29T07:24:48.027Z,84.22
2017-12-29T07:25:58.073Z,84.31
2017-12-29T07:27:08.123Z,83.84
2017-12-29T07:28:18.170Z,84.12
2017-12-29T07:29:27.966Z,83.94
2017-12-29T07:30:37.742Z,83.55
2017-12-29T07:31:47.790Z,83.4
2017-12-29T07:32:57.831Z,83.84
2017-12-29T07:34:07.610Z,83.59
2017-12-29T07:35:17.666Z,83.59
2017-12-29T07:36:27.715Z,83.88
2017-12-29T07:37:37.744Z,83.88
2017-12-29T07:38:47.530Z,83.88
2017-12-29T07:39:57.588Z,83.88
2017-12-29T07:41:07.630Z,83.22
2017-12-29T07:42:17.672Z,83.12
2017-12-29T07:43:27.702Z,82.84
2017-12-29T07:44:37.744Z,83.03
2017-12-29T07:45:47.783Z,83.31
2017-12-29T07:46:57.842Z,83.12
2017-12-29T07:48:07.894Z,83.07
2017-12-29T07:49:17.674Z,83.36
2017-12-29T07:50:27.464Z,82.97
2017-12-29T07:51:37.242Z,82.84
2017-12-29T07:52:47.028Z,83.36
2017-12-29T07:53:56.820Z,82.97
2017-12-29T07:55:06.620Z,83.16
2017-12-29T07:56:16.677Z,83.26
2017-12-29T07:57:26.467Z,83.16
2017-12-29T07:58:36.504Z,83.36
2017-12-29T07:59:46.550Z,83.16
2017-12-29T08:00:56.603Z,83.26
2017-12-29T08:02:06.709Z,82.69
2017-12-29T08:03:16.755Z,82.69
2017-12-29T08:04:26.790Z,82.88
2017-12-29T08:05:36.841Z,82.78
2017-12-29T08:06:46.883Z,82.82
2017-12-29T08:07:56.932Z,82.69
2017-12-29T08:09:06.721Z,82.82
2017-12-29T08:10:16.783Z,82.78
2017-12-29T08:11:26.305Z,82.64
2017-12-29T08:12:36.343Z,82.73
2017-12-29T08:13:46.372Z,83.16
2017-12-29T08:14:56.423Z,83.3
2017-12-29T08:16:06.473Z,83.16
2017-12-29T08:17:16.525Z,82.97
2017-12-29T08:18:26.574Z,83.01
2017-12-29T08:19:36.398Z,83.39
2017-12-29T08:20:46.444Z,83.2
2017-12-29T08:21:56.219Z,83.59
2017-12-29T08:23:06.278Z,83.36
2017-12-29T08:24:16.336Z,83.3
2017-12-29T08:25:26.397Z,83.07
2017-12-29T08:26:36.443Z,83.11
2017-12-29T08:27:46.491Z,83.07
2017-12-29T08:28:56.543Z,82.97
2017-12-29T08:30:06.584Z,83.07
2017-12-29T08:31:16.635Z,83.3
2017-12-29T08:32:26.168Z,83.39
2017-12-29T08:33:36.222Z,83.49
2017-12-29T08:34:46.284Z,83.01
2017-12-29T08:35:56.333Z,83.01
2017-12-29T08:37:06.118Z,83.11
2017-12-29T08:38:16.172Z,83.2
2017-12-29T08:39:26.212Z,82.92
2017-12-29T08:40:36.002Z,83.3
2017-12-29T08:41:45.536Z,83.3
2017-12-29T08:42:55.078Z,83.2
2017-12-29T08:44:04.866Z,83.3
2017-12-29T08:45:14.911Z,83.39
2017-12-29T08:46:24.704Z,83.2
2017-12-29T08:47:34.498Z,83.2
2017-12-29T08:48:44.547Z,83.2
2017-12-29T08:49:54.328Z,83.3
2017-12-29T08:51:04.116Z,83.2
2017-12-29T08:52:13.647Z,83.2
2017-12-29T08:53:23.423Z,83.3
2017-12-29T08:54:33.518Z,83.2
2017-12-29T08:55:43.581Z,83.3
2017-12-29T08:56:53.639Z,83.3
2017-12-29T08:58:03.702Z,83.3
2017-12-29T08:59:13.502Z,83.59
2017-12-29T09:00:23.554Z,83.01
2017-12-29T09:01:33.592Z,83.3
2017-12-29T09:02:43.377Z,83.49
2017-12-29T09:03:53.181Z,83.49
2017-12-29T09:05:03.215Z,82.97
2017-12-29T09:06:13.007Z,83.64
2017-12-29T09:07:23.059Z,83.54
2017-12-29T09:08:33.146Z,83.73
2017-12-29T09:09:42.978Z,83.45
2017-12-29T09:10:52.764Z,83.54
2017-12-29T09:12:02.937Z,84.3
2017-12-29T09:13:13.002Z,84.4
2017-12-29T09:14:22.787Z,84.21
2017-12-29T09:15:32.864Z,84.11
2017-12-29T09:16:42.916Z,84.21
2017-12-29T09:17:53.000Z,84.11
2017-12-29T09:19:03.051Z,84.21
2017-12-29T09:20:12.843Z,84.07
2017-12-29T09:21:22.900Z,84.07
2017-12-29T09:22:32.926Z,84.17
2017-12-29T09:23:42.974Z,84.07
2017-12-29T09:24:53.016Z,84.07
2017-12-29T09:26:03.065Z,84.07
2017-12-29T09:27:12.884Z,84.07
2017-12-29T09:28:22.914Z,84.07
2017-12-29T09:29:32.680Z,84.26
2017-12-29T09:30:42.716Z,84.17
2017-12-29T09:31:52.495Z,84.17
2017-12-29T09:33:02.079Z,84.17
2017-12-29T09:34:11.870Z,84.17
2017-12-29T09:35:21.958Z,84.26
2017-12-29T09:36:32.018Z,84.36
2017-12-29T09:37:42.070Z,84.26
2017-12-29T09:38:51.865Z,83.69
2017-12-29T09:40:02.162Z,83.59
2017-12-29T09:41:12.253Z,83.45
2017-12-29T09:42:22.057Z,82.97
2017-12-29T09:43:32.104Z,83.16
2017-12-29T09:44:41.899Z,83.16
2017-12-29T09:45:51.961Z,83.07
2017-12-29T09:47:01.772Z,82.59
2017-12-29T09:48:11.563Z,82.07
2017-12-29T09:49:21.635Z,82.07
2017-12-29T09:50:31.704Z,81.97
2017-12-29T09:51:41.761Z,82.07
2017-12-29T09:52:51.635Z,82.39
2017-12-29T09:54:01.434Z,82.29
2017-12-29T09:55:11.017Z,82.29
2017-12-29T09:56:21.059Z,82.2
2017-12-29T09:57:31.136Z,82.29
2017-12-29T09:58:41.242Z,82.39
2017-12-29T09:59:51.077Z,82.2
2017-12-29T10:01:01.134Z,82.2
2017-12-29T10:02:11.181Z,82.24
2017-12-29T10:03:21.219Z,82.39
2017-12-29T10:04:31.309Z,81.73
2017-12-29T10:05:41.382Z,82.24
2017-12-29T10:06:51.469Z,82.05
2017-12-29T10:08:01.530Z,82.15
2017-12-29T10:09:11.592Z,82.05
2017-12-29T10:10:21.690Z,81.86
2017-12-29T10:11:31.741Z,82.24
2017-12-29T10:12:41.538Z,82.05
2017-12-29T10:13:51.600Z,81.86
2017-12-29T10:15:01.676Z,82.05
2017-12-29T10:16:11.819Z,82.19
2017-12-29T10:17:21.879Z,81.67
2017-12-29T10:18:31.674Z,82
2017-12-29T10:19:41.469Z,81.71
2017-12-29T10:20:51.286Z,81.81
2017-12-29T10:22:01.077Z,81.81
2017-12-29T10:23:11.132Z,82.28
2017-12-29T10:24:21.220Z,82.28
2017-12-29T10:25:31.250Z,82.48
2017-12-29T10:26:41.304Z,82.38
2017-12-29T10:27:51.163Z,82
2017-12-29T10:29:01.197Z,82.38
2017-12-29T10:30:11.301Z,82
2017-12-29T10:31:21.376Z,82.38
2017-12-29T10:32:31.176Z,82.38
2017-12-29T10:33:41.284Z,82.38
2017-12-29T10:34:51.071Z,82.38
2017-12-29T10:36:00.858Z,81.9
2017-12-29T10:37:10.656Z,82.19
2017-12-29T10:38:20.699Z,81.81
2017-12-29T10:39:30.823Z,82.19
2017-12-29T10:40:40.867Z,82.09
2017-12-29T10:41:50.926Z,82.09
2017-12-29T10:43:00.995Z,82.09
2017-12-29T10:44:11.039Z,82.38
2017-12-29T10:45:21.111Z,82.48
2017-12-29T10:46:31.210Z,82.09
2017-12-29T10:47:41.272Z,81.85
2017-12-29T10:48:51.319Z,81.81
2017-12-29T10:50:01.369Z,82.28
2017-12-29T10:51:11.405Z,82.28
2017-12-29T10:52:21.459Z,82.19
2017-12-29T10:53:31.535Z,82.28
2017-12-29T10:54:41.573Z,82.09
2017-12-29T10:55:51.704Z,81.9
2017-12-29T10:57:01.794Z,82
2017-12-29T10:58:11.576Z,81.81
2017-12-29T10:59:21.631Z,82
2017-12-29T11:00:31.703Z,82.19
2017-12-29T11:01:41.487Z,82
2017-12-29T11:02:51.618Z,82.09
2017-12-29T11:04:01.681Z,82.19
2017-12-29T11:05:11.744Z,82
2017-12-29T11:06:21.841Z,81.9
2017-12-29T11:07:31.878Z,81.81
2017-12-29T11:08:42.111Z,81.81
2017-12-29T11:09:52.260Z,82.23
2017-12-29T11:11:02.336Z,82.09
2017-12-29T11:12:12.397Z,82.14
2017-12-29T11:13:22.415Z,82.19
2017-12-29T11:14:32.485Z,82.09
2017-12-29T11:15:42.544Z,82
2017-12-29T11:16:52.575Z,81.9
2017-12-29T11:18:02.629Z,82.19
2017-12-29T11:19:12.681Z,82.19
2017-12-29T11:20:22.791Z,82.38
2017-12-29T11:21:32.593Z,82.48
2017-12-29T11:22:42.129Z,82.23
2017-12-29T11:23:51.920Z,82.42
2017-12-29T11:25:01.979Z,82.51
2017-12-29T11:26:12.181Z,82.57
2017-12-29T11:27:22.228Z,83.42
2017-12-29T11:28:32.278Z,83.23
2017-12-29T11:29:42.364Z,83.23
2017-12-29T11:30:52.414Z,83.14
2017-12-29T11:32:02.470Z,83.33
2017-12-29T11:33:13.056Z,83.1
2017-12-29T11:34:23.141Z,83.1
2017-12-29T11:35:33.208Z,83.29
2017-12-29T11:36:43.289Z,83.39
2017-12-29T11:37:53.069Z,83.42
2017-12-29T11:39:03.132Z,83.1
2017-12-29T11:40:13.212Z,83.39
2017-12-29T11:41:23.258Z,83.39
2017-12-29T11:42:33.290Z,82.71
2017-12-29T11:43:43.406Z,82.09
2017-12-29T11:44:53.432Z,82.09
2017-12-29T11:46:03.500Z,82.57
2017-12-29T11:47:13.300Z,82.09
2017-12-29T11:48:23.364Z,82.28
2017-12-29T11:49:33.473Z,82.04
2017-12-29T11:50:43.546Z,82.14
2017-12-29T11:51:53.639Z,82.23
2017-12-29T11:53:03.440Z,82.14
2017-12-29T11:54:13.236Z,81.85
2017-12-29T11:55:23.329Z,82.23
2017-12-29T11:56:33.129Z,82.32
2017-12-29T11:57:43.192Z,82.14
2017-12-29T11:58:53.263Z,82.42
2017-12-29T12:00:03.310Z,82.14
2017-12-29T12:01:13.423Z,82.42
2017-12-29T12:02:23.465Z,82.42
2017-12-29T12:03:33.513Z,82.61
2017-12-29T12:04:43.548Z,82.23
2017-12-29T12:05:53.604Z,82.14
2017-12-29T12:07:03.680Z,82.14
2017-12-29T12:08:13.749Z,82.42
2017-12-29T12:09:23.800Z,82.32
2017-12-29T12:10:32.856Z,82.14
2017-12-29T12:11:42.924Z,82.14
2017-12-29T12:12:52.731Z,82.32
2017-12-29T12:14:02.762Z,81.95
2017-12-29T12:15:12.901Z,82.14
2017-12-29T12:16:22.972Z,82.23
2017-12-29T12:17:33.043Z,82.04
2017-12-29T12:18:42.861Z,82.32
2017-12-29T12:19:52.905Z,82.14
2017-12-29T12:21:02.697Z,82.23
2017-12-29T12:22:12.755Z,82.23
2017-12-29T12:23:22.803Z,81.95
2017-12-29T12:24:32.636Z,82.14
2017-12-29T12:25:42.685Z,80.02
2017-12-29T12:26:52.754Z,77.91
2017-12-29T12:28:02.829Z,75.83
2017-12-29T12:29:12.895Z,74.85
2017-12-29T12:30:22.951Z,74.22
2017-12-29T12:31:33.027Z,73.97
2017-12-29T12:32:43.081Z,73.82
2017-12-29T12:33:52.878Z,75.02
2017-12-29T12:35:03.023Z,77.34
2017-12-29T12:36:13.136Z,78.89
2017-12-29T12:37:23.182Z,80.38
2017-12-29T12:38:32.994Z,81.38
2017-12-29T12:39:42.872Z,81.35
2017-12-29T12:40:52.933Z,80.96
2017-12-29T12:42:02.785Z,81.15
2017-12-29T12:43:12.839Z,80.96
2017-12-29T12:44:22.907Z,81.06
2017-12-29T12:45:32.939Z,81.73
2017-12-29T12:46:42.731Z,81.78
2017-12-29T12:47:52.534Z,81.12
2017-12-29T12:49:02.584Z,81.59
2017-12-29T12:50:12.641Z,81.78
2017-12-29T12:51:22.438Z,82.07
2017-12-29T12:52:32.240Z,81.97
2017-12-29T12:53:42.038Z,82.17
2017-12-29T12:54:52.089Z,82.26
2017-12-29T12:56:02.143Z,81.78
2017-12-29T12:57:12.193Z,82.54
2017-12-29T12:58:22.258Z,81.59
2017-12-29T12:59:31.805Z,81.88
2017-12-29T13:00:41.858Z,82.35
2017-12-29T13:01:51.904Z,82.41
2017-12-29T13:03:01.967Z,82.5
2017-12-29T13:04:11.825Z,82.5
2017-12-29T13:05:21.923Z,82.31
2017-12-29T13:06:31.985Z,82.31
2017-12-29T13:07:42.044Z,82.31
2017-12-29T13:08:52.098Z,82.84
2017-12-29T13:10:02.176Z,83.32
2017-12-29T13:11:12.021Z,83.22
2017-12-29T13:12:22.072Z,83.41
2017-12-29T13:13:32.127Z,83.28
2017-12-29T13:14:42.183Z,83.28
2017-12-29T13:15:52.252Z,83.09
2017-12-29T13:17:02.312Z,83.18
2017-12-29T13:18:12.363Z,83.47
2017-12-29T13:19:22.417Z,82.8
2017-12-29T13:20:32.508Z,82.99
2017-12-29T13:21:42.302Z,82.99
2017-12-29T13:22:52.356Z,82.42
2017-12-29T13:24:02.423Z,82.7
2017-12-29T13:25:12.478Z,82.51
2017-12-29T13:26:22.259Z,82.61
2017-12-29T13:27:32.061Z,82.7
2017-12-29T13:28:41.585Z,82.42
2017-12-29T13:29:51.670Z,82.61
2017-12-29T13:31:01.476Z,82.7
2017-12-29T13:32:11.274Z,83.14
2017-12-29T13:33:21.331Z,82.76
2017-12-29T13:34:31.183Z,83.23
2017-12-29T13:35:40.994Z,82.76
2017-12-29T13:36:50.782Z,83.04
2017-12-29T13:38:00.574Z,82.67
2017-12-29T13:39:10.676Z,83.04
2017-12-29T13:40:20.829Z,82.86
2017-12-29T13:41:30.925Z,82.86
2017-12-29T13:42:40.994Z,83.23
2017-12-29T13:43:51.058Z,83.42
2017-12-29T13:45:00.847Z,83.33
2017-12-29T13:46:10.686Z,83.23
2017-12-29T13:47:20.783Z,82.95
2017-12-29T13:48:30.857Z,83.1
2017-12-29T13:49:40.932Z,83.29
2017-12-29T13:50:50.722Z,83.1
2017-12-29T13:52:00.844Z,83.29
2017-12-29T13:53:10.910Z,83.48
2017-12-29T13:54:20.713Z,83.39
2017-12-29T13:55:30.802Z,83.1
2017-12-29T13:56:40.872Z,83.58
2017-12-29T13:57:50.662Z,83.48
2017-12-29T13:59:00.707Z,83.19
2017-12-29T14:00:10.751Z,83.29
2017-12-29T14:01:20.803Z,82.96
2017-12-29T14:02:30.613Z,83.1
2017-12-29T14:03:40.821Z,83.34
2017-12-29T14:04:50.858Z,82.96
2017-12-29T14:06:00.907Z,82.96
2017-12-29T14:07:11.103Z,82.96
2017-12-29T14:08:20.903Z,82.96
2017-12-29T14:09:30.970Z,83.06
2017-12-29T14:10:40.499Z,83.15
2017-12-29T14:11:50.040Z,83.44
2017-12-29T14:12:59.832Z,83.25
2017-12-29T14:14:09.885Z,83.53
2017-12-29T14:15:19.953Z,84.01
2017-12-29T14:16:30.016Z,83.34
2017-12-29T14:17:40.093Z,83.34
2017-12-29T14:18:50.139Z,83.39
2017-12-29T14:20:00.188Z,83.39
2017-12-29T14:21:10.046Z,83.3
2017-12-29T14:22:19.839Z,84.06
2017-12-29T14:23:29.624Z,83.87
2017-12-29T14:24:39.671Z,83.78
2017-12-29T14:25:49.719Z,83.59
2017-12-29T14:26:59.757Z,83.49
2017-12-29T14:28:09.550Z,83.78
2017-12-29T14:29:19.350Z,83.78
2017-12-29T14:30:29.455Z,84.06
2017-12-29T14:31:39.529Z,84.11
2017-12-29T14:32:49.340Z,83.73
2017-12-29T14:33:59.400Z,84.3
2017-12-29T14:35:09.195Z,84.21
2017-12-29T14:36:19.262Z,84.11
2017-12-29T14:37:29.294Z,84.21
2017-12-29T14:38:39.367Z,84.3
2017-12-29T14:39:48.907Z,84.21
2017-12-29T14:40:58.942Z,84.3
2017-12-29T14:42:09.059Z,84.21
2017-12-29T14:43:19.120Z,84.01
2017-12-29T14:44:28.965Z,84.21
2017-12-29T14:45:39.071Z,84.01
2017-12-29T14:46:48.867Z,84.11
2017-12-29T14:47:58.664Z,84.17
2017-12-29T14:49:08.723Z,84.07
2017-12-29T14:50:18.755Z,84.07
2017-12-29T14:51:28.603Z,84.26
2017-12-29T14:52:38.370Z,84.36
2017-12-29T14:53:48.485Z,84.07
2017-12-29T14:54:58.279Z,83.97
2017-12-29T14:56:08.120Z,84.07
2017-12-29T14:57:18.161Z,84.07
2017-12-29T14:58:28.213Z,84.17
2017-12-29T14:59:38.007Z,84.36
2017-12-29T15:00:48.048Z,84.36
2017-12-29T15:01:57.583Z,84.36
2017-12-29T15:03:07.631Z,84.07
2017-12-29T15:04:17.155Z,83.97
2017-12-29T15:05:27.215Z,84.07
2017-12-29T15:06:37.276Z,84.07
2017-12-29T15:07:47.385Z,83.59
2017-12-29T15:08:57.437Z,84.26
2017-12-29T15:10:07.491Z,83.97
2017-12-29T15:11:17.547Z,83.94
2017-12-29T15:12:27.347Z,84.07
2017-12-29T15:13:37.191Z,84.03
2017-12-29T15:14:47.244Z,83.94
2017-12-29T15:15:57.291Z,83.74
2017-12-29T15:17:07.109Z,83.97
2017-12-29T15:18:16.898Z,83.94
2017-12-29T15:19:26.951Z,83.94
2017-12-29T15:20:37.011Z,83.94
2017-12-29T15:21:46.805Z,83.65
2017-12-29T15:22:56.590Z,83.46
2017-12-29T15:24:06.641Z,83.46
2017-12-29T15:25:16.683Z,83.36
2017-12-29T15:26:26.472Z,83.17
2017-12-29T15:27:36.266Z,83.65
2017-12-29T15:28:46.326Z,83.17
2017-12-29T15:29:56.152Z,83.46
2017-12-29T15:31:06.210Z,83.36
2017-12-29T15:32:15.735Z,83.36
2017-12-29T15:33:25.271Z,83.36
2017-12-29T15:34:35.308Z,83.46
2017-12-29T15:35:45.362Z,83.55